sensor_id;sensor_type;location;lat;lon;timestamp;pressure;altitude;pressure_sealevel;temperature;humidity
21664;BME280;10993;52.510;13.456;2023-04-25T00:01:28;56469.69;;;-146.93;69.44
21664;BME280;10993;52.510;13.456;2023-04-25T00:06:28;56406.91;;;-146.93;69.90
21664;BME280;10993;52.510;13.456;2023-04-25T00:11:29;56443.38;;;-146.93;69.98
21664;BME280;10993;52.510;13.456;2023-04-25T00:16:32;56358.31;;;-146.93;69.12
21664;BME280;10993;52.510;13.456;2023-04-25T00:21:34;56449.44;;;-146.93;67.60
21664;BME280;10993;52.510;13.456;2023-04-25T00:26:35;56439.31;;;-146.93;67.26
21664;BME280;10993;52.510;13.456;2023-04-25T00:31:37;56445.38;;;-146.93;66.64
21664;BME280;10993;52.510;13.456;2023-04-25T00:36:37;56467.66;;;-146.93;66.68
21664;BME280;10993;52.510;13.456;2023-04-25T00:41:38;56421.09;;;-146.93;66.41
21664;BME280;10993;52.510;13.456;2023-04-25T00:46:41;56423.13;;;-146.93;65.91
21664;BME280;10993;52.510;13.456;2023-04-25T00:51:42;56340.09;;;-146.93;66.39
21664;BME280;10993;52.510;13.456;2023-04-25T00:56:44;56317.84;;;-146.93;65.75
21664;BME280;10993;52.510;13.456;2023-04-25T01:01:46;56415.03;;;-146.93;66.31
21664;BME280;10993;52.510;13.456;2023-04-25T01:06:47;56398.81;;;-146.93;66.07
21664;BME280;10993;52.510;13.456;2023-04-25T01:11:48;56435.25;;;-146.93;66.05
21664;BME280;10993;52.510;13.456;2023-04-25T01:16:50;56465.63;;;-146.93;66.46
21664;BME280;10993;52.510;13.456;2023-04-25T01:21:52;56455.50;;;-146.93;66.42
21664;BME280;10993;52.510;13.456;2023-04-25T01:26:53;56423.13;;;-146.93;66.21
21664;BME280;10993;52.510;13.456;2023-04-25T01:31:56;56269.25;;;-146.93;65.86
21664;BME280;10993;52.510;13.456;2023-04-25T01:37:00;56467.66;;;-146.93;65.22
21664;BME280;10993;52.510;13.456;2023-04-25T01:42:06;56451.47;;;-146.93;64.50
21664;BME280;10993;52.510;13.456;2023-04-25T01:47:06;56467.66;;;-146.93;63.91
21664;BME280;10993;52.510;13.456;2023-04-25T01:52:08;56443.38;;;-146.93;63.73
21664;BME280;10993;52.510;13.456;2023-04-25T01:57:08;56696.44;;;-146.93;64.61
21664;BME280;10993;52.510;13.456;2023-04-25T02:02:08;56443.38;;;-146.93;64.11
21664;BME280;10993;52.510;13.456;2023-04-25T02:07:10;56437.28;;;-146.93;63.98
21664;BME280;10993;52.510;13.456;2023-04-25T02:12:11;56443.38;;;-146.93;64.10
21664;BME280;10993;52.510;13.456;2023-04-25T02:17:11;56431.22;;;-146.93;64.18
21664;BME280;10993;52.510;13.456;2023-04-25T02:22:14;56465.63;;;-146.93;63.65
21664;BME280;10993;52.510;13.456;2023-04-25T02:27:14;56394.78;;;-146.93;64.05
21664;BME280;10993;52.510;13.456;2023-04-25T02:32:15;56332.00;;;-146.93;63.54
21664;BME280;10993;52.510;13.456;2023-04-25T02:37:17;56417.03;;;-146.93;64.21
21664;BME280;10993;52.510;13.456;2023-04-25T02:42:17;56378.56;;;-146.93;64.11
21664;BME280;10993;52.510;13.456;2023-04-25T02:47:17;56461.59;;;-146.93;64.16
21664;BME280;10993;52.510;13.456;2023-04-25T02:52:19;56455.50;;;-146.93;64.00
21664;BME280;10993;52.510;13.456;2023-04-25T02:57:21;56410.97;;;-146.93;63.82
21664;BME280;10993;52.510;13.456;2023-04-25T03:02:21;56447.41;;;-146.93;64.27
21664;BME280;10993;52.510;13.456;2023-04-25T03:07:23;56463.59;;;-146.93;64.34
21664;BME280;10993;52.510;13.456;2023-04-25T03:12:23;57281.66;;;-146.93;64.60
21664;BME280;10993;52.510;13.456;2023-04-25T03:17:24;56641.78;;;-146.93;64.40
21664;BME280;10993;52.510;13.456;2023-04-25T03:22:25;56408.94;;;-146.93;64.87
21664;BME280;10993;52.510;13.456;2023-04-25T03:27:26;56449.44;;;-146.93;64.81
21664;BME280;10993;52.510;13.456;2023-04-25T03:32:26;56417.03;;;-146.93;64.63
21664;BME280;10993;52.510;13.456;2023-04-25T03:37:28;56491.94;;;-146.93;64.26
21664;BME280;10993;52.510;13.456;2023-04-25T03:42:28;56445.38;;;-146.93;64.59
21664;BME280;10993;52.510;13.456;2023-04-25T03:47:28;56364.41;;;-146.93;64.98
21664;BME280;10993;52.510;13.456;2023-04-25T03:52:30;56427.16;;;-146.93;64.83
21664;BME280;10993;52.510;13.456;2023-04-25T03:57:31;56433.25;;;-146.93;64.72
21664;BME280;10993;52.510;13.456;2023-04-25T04:02:33;56427.16;;;-146.93;65.23
21664;BME280;10993;52.510;13.456;2023-04-25T04:07:36;56443.38;;;-146.93;65.25
21664;BME280;10993;52.510;13.456;2023-04-25T04:12:40;56457.53;;;-146.93;65.60
21664;BME280;10993;52.510;13.456;2023-04-25T04:17:40;56404.91;;;-146.93;65.50
21664;BME280;10993;52.510;13.456;2023-04-25T04:22:42;56419.06;;;-146.93;65.25
21664;BME280;10993;52.510;13.456;2023-04-25T04:27:43;56449.44;;;-146.93;64.57
21664;BME280;10993;52.510;13.456;2023-04-25T04:32:45;56423.13;;;-146.93;64.57
21664;BME280;10993;52.510;13.456;2023-04-25T04:37:46;56431.22;;;-146.93;65.27
21664;BME280;10993;52.510;13.456;2023-04-25T04:42:48;56402.88;;;-146.93;65.01
21664;BME280;10993;52.510;13.456;2023-04-25T04:47:48;56423.13;;;-146.93;64.69
21664;BME280;10993;52.510;13.456;2023-04-25T04:52:50;56453.47;;;-146.93;63.87
21664;BME280;10993;52.510;13.456;2023-04-25T04:57:50;56439.31;;;-146.93;64.15
21664;BME280;10993;52.510;13.456;2023-04-25T05:02:51;56455.50;;;-146.93;63.74
21664;BME280;10993;52.510;13.456;2023-04-25T05:07:53;56473.72;;;-146.93;63.03
21664;BME280;10993;52.510;13.456;2023-04-25T05:12:53;56455.50;;;-146.93;63.25
21664;BME280;10993;52.510;13.456;2023-04-25T05:17:53;56483.84;;;-146.93;63.70
21664;BME280;10993;52.510;13.456;2023-04-25T05:22:55;56451.47;;;-146.93;61.69
21664;BME280;10993;52.510;13.456;2023-04-25T05:27:55;56473.72;;;-146.93;61.98
21664;BME280;10993;52.510;13.456;2023-04-25T05:32:56;56479.81;;;-146.93;61.73
21664;BME280;10993;52.510;13.456;2023-04-25T05:37:58;56443.38;;;-146.93;62.43
21664;BME280;10993;52.510;13.456;2023-04-25T05:42:58;56465.63;;;-146.93;62.61
21664;BME280;10993;52.510;13.456;2023-04-25T05:47:59;56370.47;;;-146.93;61.83
21664;BME280;10993;52.510;13.456;2023-04-25T05:53:01;56487.91;;;-146.93;63.66
21664;BME280;10993;52.510;13.456;2023-04-25T05:58:01;56520.28;;;-146.93;62.79
21664;BME280;10993;52.510;13.456;2023-04-25T06:03:01;56489.94;;;-146.93;62.15
21664;BME280;10993;52.510;13.456;2023-04-25T06:08:03;56439.31;;;-146.93;64.20
21664;BME280;10993;52.510;13.456;2023-04-25T06:13:04;56508.16;;;-146.93;62.62
21664;BME280;10993;52.510;13.456;2023-04-25T06:18:05;56471.72;;;-146.93;63.34
21664;BME280;10993;52.510;13.456;2023-04-25T06:23:07;56475.75;;;-146.93;64.03
21664;BME280;10993;52.510;13.456;2023-04-25T06:28:07;56457.53;;;-146.93;62.75
21664;BME280;10993;52.510;13.456;2023-04-25T06:33:07;56508.16;;;-146.93;62.21
21664;BME280;10993;52.510;13.456;2023-04-25T06:38:10;56520.28;;;-146.93;61.69
21664;BME280;10993;52.510;13.456;2023-04-25T06:43:10;56508.16;;;-146.93;61.66
21664;BME280;10993;52.510;13.456;2023-04-25T06:48:10;56475.75;;;-146.93;62.73
21664;BME280;10993;52.510;13.456;2023-04-25T06:53:12;57873.03;;;-146.93;61.97
21664;BME280;10993;52.510;13.456;2023-04-25T06:58:13;56498.03;;;-146.93;62.68
21664;BME280;10993;52.510;13.456;2023-04-25T07:03:13;56508.16;;;-146.93;63.44
21664;BME280;10993;52.510;13.456;2023-04-25T07:08:15;56498.03;;;-146.93;65.31
21664;BME280;10993;52.510;13.456;2023-04-25T07:13:15;57881.16;;;-146.93;63.12
21664;BME280;10993;52.510;13.456;2023-04-25T07:18:16;56451.47;;;-146.93;65.19
21664;BME280;10993;52.510;13.456;2023-04-25T07:23:17;56502.06;;;-146.93;64.89
21664;BME280;10993;52.510;13.456;2023-04-25T07:28:18;56475.75;;;-146.93;66.50
21664;BME280;10993;52.510;13.456;2023-04-25T07:33:18;56522.31;;;-146.93;69.54
21664;BME280;10993;52.510;13.456;2023-04-25T07:38:22;56483.84;;;-146.93;71.08
21664;BME280;10993;52.510;13.456;2023-04-25T07:43:22;56508.16;;;-146.93;65.90
21664;BME280;10993;52.510;13.456;2023-04-25T07:48:22;56512.19;;;-146.93;62.35
21664;BME280;10993;52.510;13.456;2023-04-25T07:53:24;56516.25;;;-146.93;58.52
21664;BME280;10993;52.510;13.456;2023-04-25T07:58:25;56544.59;;;-146.93;55.42
21664;BME280;10993;52.510;13.456;2023-04-25T08:03:25;56485.88;;;-146.93;56.39
21664;BME280;10993;52.510;13.456;2023-04-25T08:08:27;56558.75;;;-146.93;54.75
21664;BME280;10993;52.510;13.456;2023-04-25T08:13:27;56514.22;;;-146.93;56.39
21664;BME280;10993;52.510;13.456;2023-04-25T08:18:27;56520.28;;;-146.93;50.54
21664;BME280;10993;52.510;13.456;2023-04-25T08:23:29;56609.38;;;-146.93;47.39
21664;BME280;10993;52.510;13.456;2023-04-25T08:28:29;56581.03;;;-146.93;47.78
21664;BME280;10993;52.510;13.456;2023-04-25T08:33:30;56617.47;;;-146.93;49.81
21664;BME280;10993;52.510;13.456;2023-04-25T08:38:32;56666.06;;;-146.93;44.89
21664;BME280;10993;52.510;13.456;2023-04-25T08:43:35;56664.06;;;-146.93;40.90
21664;BME280;10993;52.510;13.456;2023-04-25T08:48:36;56633.69;;;-146.93;40.22
21664;BME280;10993;52.510;13.456;2023-04-25T08:53:38;56579.00;;;-146.93;40.65
21664;BME280;10993;52.510;13.456;2023-04-25T08:58:43;56544.59;;;-146.93;38.95
21664;BME280;10993;52.510;13.456;2023-04-25T09:03:44;56828.06;;;-146.93;34.91
21664;BME280;10993;52.510;13.456;2023-04-25T09:08:46;56639.75;;;-146.93;34.67
21664;BME280;10993;52.510;13.456;2023-04-25T09:13:46;56923.22;;;-146.93;33.11
21664;BME280;10993;52.510;13.456;2023-04-25T09:18:47;57591.50;;;-146.93;28.03
21664;BME280;10993;52.510;13.456;2023-04-25T09:23:49;58083.69;;;-146.93;26.62
21664;BME280;10993;52.510;13.456;2023-04-25T09:29:04;58146.50;;;-146.93;25.24
21664;BME280;10993;52.510;13.456;2023-04-25T09:34:05;57824.44;;;-146.93;25.27
21664;BME280;10993;52.510;13.456;2023-04-25T09:39:12;57141.94;;;-146.93;28.11
21664;BME280;10993;52.510;13.456;2023-04-25T09:44:15;57733.28;;;-146.93;26.76
21664;BME280;10993;52.510;13.456;2023-04-25T09:49:15;57508.47;;;-146.93;26.43
21664;BME280;10993;52.510;13.456;2023-04-25T09:54:17;56977.91;;;-146.93;28.01
21664;BME280;10993;52.510;13.456;2023-04-25T09:59:20;56714.66;;;-146.93;29.42
21664;BME280;10993;52.510;13.456;2023-04-25T10:04:24;56905.00;;;-146.93;28.63
21664;BME280;10993;52.510;13.456;2023-04-25T10:09:28;56874.63;;;-146.93;28.87
21664;BME280;10993;52.510;13.456;2023-04-25T10:14:34;56921.22;;;-146.93;28.16
21664;BME280;10993;52.510;13.456;2023-04-25T10:19:34;56828.06;;;-146.93;28.75
21664;BME280;10993;52.510;13.456;2023-04-25T10:24:37;56913.09;;;-146.93;29.09
21664;BME280;10993;52.510;13.456;2023-04-25T10:29:38;56880.72;;;-146.93;28.77
21664;BME280;10993;52.510;13.456;2023-04-25T10:34:40;58217.41;;;-146.93;29.33
21664;BME280;10993;52.510;13.456;2023-04-25T10:39:42;56801.75;;;-146.93;29.49
21664;BME280;10993;52.510;13.456;2023-04-25T10:45:00;56761.25;;;-146.93;29.78
21664;BME280;10993;52.510;13.456;2023-04-25T10:50:05;56775.41;;;-146.93;30.05
21664;BME280;10993;52.510;13.456;2023-04-25T10:55:08;56730.88;;;-146.93;30.41
21664;BME280;10993;52.510;13.456;2023-04-25T11:00:11;56761.25;;;-146.93;30.54
21664;BME280;10993;52.510;13.456;2023-04-25T11:05:20;56775.41;;;-146.93;30.30
21664;BME280;10993;52.510;13.456;2023-04-25T11:10:26;56817.94;;;-146.93;29.93
21664;BME280;10993;52.510;13.456;2023-04-25T11:15:27;56726.81;;;-146.93;29.79
21664;BME280;10993;52.510;13.456;2023-04-25T11:20:27;56732.91;;;-146.93;29.64
21664;BME280;10993;52.510;13.456;2023-04-25T11:25:30;56621.53;;;-146.93;31.12
21664;BME280;10993;52.510;13.456;2023-04-25T11:30:31;56572.94;;;-146.93;32.31
21664;BME280;10993;52.510;13.456;2023-04-25T11:35:31;56568.88;;;-146.93;33.08
21664;BME280;10993;52.510;13.456;2023-04-25T11:40:35;56572.94;;;-146.93;32.29
21664;BME280;10993;52.510;13.456;2023-04-25T11:45:36;56544.59;;;-146.93;31.37
21664;BME280;10993;52.510;13.456;2023-04-25T11:50:38;56625.59;;;-146.93;30.67
21664;BME280;10993;52.510;13.456;2023-04-25T11:55:40;57648.22;;;-146.93;29.59
21664;BME280;10993;52.510;13.456;2023-04-25T12:00:42;56653.94;;;-146.93;29.52
21664;BME280;10993;52.510;13.456;2023-04-25T12:05:44;56589.13;;;-146.93;28.92
21664;BME280;10993;52.510;13.456;2023-04-25T12:10:46;56706.56;;;-146.93;28.81
21664;BME280;10993;52.510;13.456;2023-04-25T12:15:47;56726.81;;;-146.93;28.84
21664;BME280;10993;52.510;13.456;2023-04-25T12:20:47;56734.91;;;-146.93;28.89
21664;BME280;10993;52.510;13.456;2023-04-25T12:25:49;56686.31;;;-146.93;29.73
21664;BME280;10993;52.510;13.456;2023-04-25T12:30:55;56589.13;;;-146.93;29.39
21664;BME280;10993;52.510;13.456;2023-04-25T12:35:56;56710.63;;;-146.93;28.38
21664;BME280;10993;52.510;13.456;2023-04-25T12:40:59;56702.53;;;-146.93;28.59
21664;BME280;10993;52.510;13.456;2023-04-25T12:45:59;56832.13;;;-146.93;27.75
21664;BME280;10993;52.510;13.456;2023-04-25T12:50:59;56734.91;;;-146.93;27.59
21664;BME280;10993;52.510;13.456;2023-04-25T12:56:01;56759.22;;;-146.93;28.53
21664;BME280;10993;52.510;13.456;2023-04-25T13:01:02;56745.03;;;-146.93;28.93
21664;BME280;10993;52.510;13.456;2023-04-25T13:06:02;56726.81;;;-146.93;28.03
21664;BME280;10993;52.510;13.456;2023-04-25T13:11:04;56698.47;;;-146.93;27.97
21664;BME280;10993;52.510;13.456;2023-04-25T13:16:05;57775.81;;;-146.93;27.47
21664;BME280;10993;52.510;13.456;2023-04-25T13:21:06;56738.97;;;-146.93;26.90
21664;BME280;10993;52.510;13.456;2023-04-25T13:26:08;56678.22;;;-146.93;27.99
21664;BME280;10993;52.510;13.456;2023-04-25T13:31:08;56716.69;;;-146.93;28.52
21664;BME280;10993;52.510;13.456;2023-04-25T13:36:08;56726.81;;;-146.93;28.82
21664;BME280;10993;52.510;13.456;2023-04-25T13:41:10;56734.91;;;-146.93;29.54
21664;BME280;10993;52.510;13.456;2023-04-25T13:46:14;56645.81;;;-146.93;29.26
21664;BME280;10993;52.510;13.456;2023-04-25T13:51:15;56542.56;;;-146.93;30.36
21664;BME280;10993;52.510;13.456;2023-04-25T13:56:18;56603.31;;;-146.93;30.38
21664;BME280;10993;52.510;13.456;2023-04-25T14:01:19;57253.31;;;-146.93;29.99
21664;BME280;10993;52.510;13.456;2023-04-25T14:06:21;56730.88;;;-146.93;29.62
21664;BME280;10993;52.510;13.456;2023-04-25T14:11:25;56649.88;;;-146.93;30.60
21664;BME280;10993;52.510;13.456;2023-04-25T14:16:25;56623.56;;;-146.93;31.04
21664;BME280;10993;52.510;13.456;2023-04-25T14:21:26;56603.31;;;-146.93;31.33
21664;BME280;10993;52.510;13.456;2023-04-25T14:26:28;56570.91;;;-146.93;30.91
21664;BME280;10993;52.510;13.456;2023-04-25T14:31:28;56518.28;;;-146.93;31.68
21664;BME280;10993;52.510;13.456;2023-04-25T14:36:29;56587.13;;;-146.93;31.75
21664;BME280;10993;52.510;13.456;2023-04-25T14:41:32;56568.88;;;-146.93;31.17
21664;BME280;10993;52.510;13.456;2023-04-25T14:46:32;57245.22;;;-146.93;31.49
21664;BME280;10993;52.510;13.456;2023-04-25T14:51:33;56542.56;;;-146.93;31.18
21664;BME280;10993;52.510;13.456;2023-04-25T14:56:34;56609.38;;;-146.93;31.67
21664;BME280;10993;52.510;13.456;2023-04-25T15:01:35;56585.09;;;-146.93;32.24
21664;BME280;10993;52.510;13.456;2023-04-25T15:06:36;56568.88;;;-146.93;33.17
21664;BME280;10993;52.510;13.456;2023-04-25T15:11:37;56579.00;;;-146.93;34.10
21664;BME280;10993;52.510;13.456;2023-04-25T15:16:38;56518.28;;;-146.93;34.67
21664;BME280;10993;52.510;13.456;2023-04-25T15:21:39;56558.75;;;-146.93;34.72
21664;BME280;10993;52.510;13.456;2023-04-25T15:26:41;56534.47;;;-146.93;34.01
21664;BME280;10993;52.510;13.456;2023-04-25T15:31:41;56518.28;;;-146.93;33.66
21664;BME280;10993;52.510;13.456;2023-04-25T15:36:42;56617.47;;;-146.93;33.19
21664;BME280;10993;52.510;13.456;2023-04-25T15:41:43;56508.16;;;-146.93;32.60
21664;BME280;10993;52.510;13.456;2023-04-25T15:46:44;56504.09;;;-146.93;32.58
21664;BME280;10993;52.510;13.456;2023-04-25T15:51:45;56522.31;;;-146.93;33.47
21664;BME280;10993;52.510;13.456;2023-04-25T15:56:47;56506.13;;;-146.93;34.03
21664;BME280;10993;52.510;13.456;2023-04-25T16:01:47;56487.91;;;-146.93;34.50
21664;BME280;10993;52.510;13.456;2023-04-25T16:06:48;56473.72;;;-146.93;34.84
21664;BME280;10993;52.510;13.456;2023-04-25T16:11:50;56487.91;;;-146.93;34.27
21664;BME280;10993;52.510;13.456;2023-04-25T16:16:50;56457.53;;;-146.93;33.77
21664;BME280;10993;52.510;13.456;2023-04-25T16:21:50;56518.28;;;-146.93;32.33
21664;BME280;10993;52.510;13.456;2023-04-25T16:26:52;56487.91;;;-146.93;32.45
21664;BME280;10993;52.510;13.456;2023-04-25T16:31:53;56994.09;;;-146.93;33.06
21664;BME280;10993;52.510;13.456;2023-04-25T16:36:53;56487.91;;;-146.93;33.29
21664;BME280;10993;52.510;13.456;2023-04-25T16:41:55;56508.16;;;-146.93;32.88
21664;BME280;10993;52.510;13.456;2023-04-25T16:46:55;56463.59;;;-146.93;32.95
21664;BME280;10993;52.510;13.456;2023-04-25T16:51:56;56451.47;;;-146.93;32.71
21664;BME280;10993;52.510;13.456;2023-04-25T16:56:57;56502.06;;;-146.93;32.83
21664;BME280;10993;52.510;13.456;2023-04-25T17:01:58;56475.75;;;-146.93;33.05
21664;BME280;10993;52.510;13.456;2023-04-25T17:06:59;56500.06;;;-146.93;33.18
21664;BME280;10993;52.510;13.456;2023-04-25T17:12:01;56435.25;;;-146.93;33.84
21664;BME280;10993;52.510;13.456;2023-04-25T17:17:02;56475.75;;;-146.93;34.56
21664;BME280;10993;52.510;13.456;2023-04-25T17:22:03;56443.38;;;-146.93;34.83
21664;BME280;10993;52.510;13.456;2023-04-25T17:27:06;56433.25;;;-146.93;35.09
21664;BME280;10993;52.510;13.456;2023-04-25T17:32:07;56807.81;;;-146.93;35.53
21664;BME280;10993;52.510;13.456;2023-04-25T17:37:08;56429.19;;;-146.93;35.89
21664;BME280;10993;52.510;13.456;2023-04-25T17:42:15;56417.03;;;-146.93;36.06
21664;BME280;10993;52.510;13.456;2023-04-25T17:47:16;56356.31;;;-146.93;36.37
21664;BME280;10993;52.510;13.456;2023-04-25T17:52:16;56402.88;;;-146.93;37.10
21664;BME280;10993;52.510;13.456;2023-04-25T17:57:18;56374.53;;;-146.93;37.67
21664;BME280;10993;52.510;13.456;2023-04-25T18:02:21;56334.03;;;-146.93;38.17
21664;BME280;10993;52.510;13.456;2023-04-25T18:07:22;56423.13;;;-146.93;39.09
21664;BME280;10993;52.510;13.456;2023-04-25T18:12:24;56354.28;;;-146.93;39.12
21664;BME280;10993;52.510;13.456;2023-04-25T18:17:24;56427.16;;;-146.93;39.53
21664;BME280;10993;52.510;13.456;2023-04-25T18:22:25;56388.69;;;-146.93;39.66
21664;BME280;10993;52.510;13.456;2023-04-25T18:27:27;56406.91;;;-146.93;39.38
21664;BME280;10993;52.510;13.456;2023-04-25T18:32:28;56285.44;;;-146.93;39.69
21664;BME280;10993;52.510;13.456;2023-04-25T18:37:28;56415.03;;;-146.93;40.80
21664;BME280;10993;52.510;13.456;2023-04-25T18:42:30;56410.97;;;-146.93;42.14
21664;BME280;10993;52.510;13.456;2023-04-25T18:47:31;56384.66;;;-146.93;43.02
21664;BME280;10993;52.510;13.456;2023-04-25T18:52:31;56431.22;;;-146.93;44.35
21664;BME280;10993;52.510;13.456;2023-04-25T18:57:33;56364.41;;;-146.93;45.94
21664;BME280;10993;52.510;13.456;2023-04-25T19:02:34;56394.78;;;-146.93;47.02
21664;BME280;10993;52.510;13.456;2023-04-25T19:07:36;56435.25;;;-146.93;47.11
21664;BME280;10993;52.510;13.456;2023-04-25T19:12:38;56386.66;;;-146.93;44.72
21664;BME280;10993;52.510;13.456;2023-04-25T19:17:38;56410.97;;;-146.93;43.82
21664;BME280;10993;52.510;13.456;2023-04-25T19:22:38;56404.91;;;-146.93;42.24
21664;BME280;10993;52.510;13.456;2023-04-25T19:27:40;56406.91;;;-146.93;42.75
21664;BME280;10993;52.510;13.456;2023-04-25T19:32:41;56390.72;;;-146.93;41.68
21664;BME280;10993;52.510;13.456;2023-04-25T19:37:41;56406.91;;;-146.93;41.56
21664;BME280;10993;52.510;13.456;2023-04-25T19:42:46;56370.47;;;-146.93;41.09
21664;BME280;10993;52.510;13.456;2023-04-25T19:47:47;56417.03;;;-146.93;41.46
21664;BME280;10993;52.510;13.456;2023-04-25T19:52:48;56396.78;;;-146.93;41.61
21664;BME280;10993;52.510;13.456;2023-04-25T19:57:50;56301.63;;;-146.93;41.90
21664;BME280;10993;52.510;13.456;2023-04-25T20:02:50;56309.75;;;-146.93;42.43
21664;BME280;10993;52.510;13.456;2023-04-25T20:07:50;56390.72;;;-146.93;42.92
21664;BME280;10993;52.510;13.456;2023-04-25T20:12:52;56368.44;;;-146.93;43.43
21664;BME280;10993;52.510;13.456;2023-04-25T20:17:53;56398.81;;;-146.93;44.43
21664;BME280;10993;52.510;13.456;2023-04-25T20:22:54;56386.66;;;-146.93;45.07
21664;BME280;10993;52.510;13.456;2023-04-25T20:27:56;56390.72;;;-146.93;46.19
21664;BME280;10993;52.510;13.456;2023-04-25T20:32:56;56350.22;;;-146.93;46.99
21664;BME280;10993;52.510;13.456;2023-04-25T20:37:57;56384.66;;;-146.93;48.02
21664;BME280;10993;52.510;13.456;2023-04-25T20:42:58;56267.22;;;-146.93;47.82
21664;BME280;10993;52.510;13.456;2023-04-25T20:48:00;56415.03;;;-146.93;48.26
21664;BME280;10993;52.510;13.456;2023-04-25T20:53:01;56410.97;;;-146.93;48.96
21664;BME280;10993;52.510;13.456;2023-04-25T20:58:04;56394.78;;;-146.93;49.04
21664;BME280;10993;52.510;13.456;2023-04-25T21:03:06;56394.78;;;-146.93;49.72
21664;BME280;10993;52.510;13.456;2023-04-25T21:08:07;56398.81;;;-146.93;49.83
21664;BME280;10993;52.510;13.456;2023-04-25T21:13:10;56370.47;;;-146.93;49.94
21664;BME280;10993;52.510;13.456;2023-04-25T21:18:11;56398.81;;;-146.93;49.43
21664;BME280;10993;52.510;13.456;2023-04-25T21:23:11;56325.94;;;-146.93;47.15
21664;BME280;10993;52.510;13.456;2023-04-25T21:28:13;56180.16;;;-146.93;46.76
21664;BME280;10993;52.510;13.456;2023-04-25T21:33:14;56354.28;;;-146.93;47.53
21664;BME280;10993;52.510;13.456;2023-04-25T21:38:14;56295.56;;;-146.93;48.98
21664;BME280;10993;52.510;13.456;2023-04-25T21:43:16;56390.72;;;-146.93;48.58
21664;BME280;10993;52.510;13.456;2023-04-25T21:48:17;56358.31;;;-146.93;48.49
21664;BME280;10993;52.510;13.456;2023-04-25T21:53:17;56354.28;;;-146.93;48.72
21664;BME280;10993;52.510;13.456;2023-04-25T21:58:19;56236.84;;;-146.93;49.16
21664;BME280;10993;52.510;13.456;2023-04-25T22:03:19;56404.91;;;-146.93;49.82
21664;BME280;10993;52.510;13.456;2023-04-25T22:08:19;56382.63;;;-146.93;50.13
21664;BME280;10993;52.510;13.456;2023-04-25T22:13:21;56275.31;;;-146.93;50.68
21664;BME280;10993;52.510;13.456;2023-04-25T22:18:21;56380.59;;;-146.93;51.18
21664;BME280;10993;52.510;13.456;2023-04-25T22:23:22;56388.69;;;-146.93;52.00
21664;BME280;10993;52.510;13.456;2023-04-25T22:28:24;56376.56;;;-146.93;52.57
21664;BME280;10993;52.510;13.456;2023-04-25T22:33:24;56388.69;;;-146.93;53.16
21664;BME280;10993;52.510;13.456;2023-04-25T22:38:25;56388.69;;;-146.93;53.04
21664;BME280;10993;52.510;13.456;2023-04-25T22:43:26;56176.13;;;-146.93;54.00
21664;BME280;10993;52.510;13.456;2023-04-25T22:48:28;56410.97;;;-146.93;55.24
21664;BME280;10993;52.510;13.456;2023-04-25T22:53:28;56402.88;;;-146.93;55.52
21664;BME280;10993;52.510;13.456;2023-04-25T22:58:32;56374.53;;;-146.93;55.99
21664;BME280;10993;52.510;13.456;2023-04-25T23:03:33;56400.84;;;-146.93;56.08
21664;BME280;10993;52.510;13.456;2023-04-25T23:08:34;56277.34;;;-146.93;56.18
21664;BME280;10993;52.510;13.456;2023-04-25T23:13:36;56390.72;;;-146.93;56.55
21664;BME280;10993;52.510;13.456;2023-04-25T23:18:37;56402.88;;;-146.93;57.23
21664;BME280;10993;52.510;13.456;2023-04-25T23:23:38;56390.72;;;-146.93;57.54
21664;BME280;10993;52.510;13.456;2023-04-25T23:28:40;56406.91;;;-146.93;58.10
21664;BME280;10993;52.510;13.456;2023-04-25T23:33:41;56380.59;;;-146.93;58.72
21664;BME280;10993;52.510;13.456;2023-04-25T23:38:41;56520.28;;;-146.93;59.93
21664;BME280;10993;52.510;13.456;2023-04-25T23:43:43;56382.63;;;-146.93;60.04
21664;BME280;10993;52.510;13.456;2023-04-25T23:48:43;56376.56;;;-146.93;60.40
21664;BME280;10993;52.510;13.456;2023-04-25T23:53:43;56400.84;;;-146.93;61.08
21664;BME280;10993;52.510;13.456;2023-04-25T23:58:47;56408.94;;;-146.93;61.17
